createdAt,value
2022-09-04T00:00:36.107Z,18.50
2022-09-04T00:03:18.635Z,18.50
2022-09-04T00:06:01.729Z,18.50
2022-09-04T00:09:09.686Z,18.50
2022-09-04T00:11:57.133Z,18.50
2022-09-04T00:14:39.218Z,18.50
2022-09-04T00:17:28.677Z,18.50
2022-09-04T00:20:26.728Z,18.60
2022-09-04T00:23:16.329Z,18.60
2022-09-04T00:26:05.547Z,18.60
2022-09-04T00:28:48.392Z,18.60
2022-09-04T00:31:47.239Z,18.60
2022-09-04T00:34:38.918Z,18.60
2022-09-04T00:37:18.833Z,18.60
2022-09-04T00:40:34.075Z,18.60
2022-09-04T00:43:21.194Z,18.60
2022-09-04T00:46:29.815Z,18.60
2022-09-04T00:49:39.148Z,18.60
2022-09-04T00:52:49.197Z,18.60
2022-09-04T00:56:01.717Z,18.60
2022-09-04T00:59:10.643Z,18.60
2022-09-04T01:01:45.955Z,18.60
2022-09-04T01:04:45.385Z,18.60
2022-09-04T01:07:43.143Z,18.60
2022-09-04T01:10:43.607Z,18.60
2022-09-04T01:13:28.186Z,18.60
2022-09-04T01:16:05.371Z,18.60
2022-09-04T01:18:47.935Z,18.60
2022-09-04T01:21:40.071Z,18.60
2022-09-04T01:24:49.705Z,18.60
2022-09-04T01:27:46.305Z,18.60
2022-09-04T01:30:19.910Z,18.70
2022-09-04T01:33:08.179Z,18.60
2022-09-04T01:35:56.063Z,18.50
2022-09-04T01:38:56.986Z,18.50
2022-09-04T01:42:11.229Z,18.40
2022-09-04T01:44:40.924Z,18.30
2022-09-04T01:47:45.469Z,18.30
2022-09-04T01:50:40.490Z,18.30
2022-09-04T01:53:51.220Z,18.30
2022-09-04T01:56:40.085Z,18.30
2022-09-04T02:00:04.049Z,18.30
2022-09-04T02:03:23.716Z,18.30
2022-09-04T02:06:40.813Z,18.30
2022-09-04T02:09:42.256Z,18.30
2022-09-04T02:12:41.617Z,18.40
2022-09-04T02:15:48.848Z,18.40
2022-09-04T02:18:40.090Z,18.40
2022-09-04T02:21:22.806Z,18.40
2022-09-04T02:24:15.736Z,18.40
2022-09-04T02:27:14.172Z,18.40
2022-09-04T02:29:59.338Z,18.30
2022-09-04T02:32:46.816Z,18.20
2022-09-04T02:35:30.874Z,18.10
2022-09-04T02:38:26.075Z,18.10
2022-09-04T02:41:20.903Z,18.10
2022-09-04T02:44:23.016Z,18.10
2022-09-04T02:47:33.463Z,18.20
2022-09-04T02:50:40.385Z,18.20
2022-09-04T02:53:41.157Z,18.20
2022-09-04T02:56:44.125Z,18.20
2022-09-04T02:59:55.830Z,18.30
2022-09-04T03:02:44.476Z,18.30
2022-09-04T03:05:33.895Z,18.20
2022-09-04T03:08:26.782Z,18.20
2022-09-04T03:11:07.136Z,18.10
2022-09-04T03:14:17.243Z,18.00
2022-09-04T03:17:11.822Z,18.00
2022-09-04T03:19:54.317Z,18.00
2022-09-04T03:22:49.862Z,17.90
2022-09-04T03:25:44.300Z,18.00
2022-09-04T03:28:37.549Z,18.00
2022-09-04T03:31:41.583Z,18.00
2022-09-04T03:34:41.677Z,18.00
2022-09-04T03:37:43.881Z,18.00
2022-09-04T03:41:07.238Z,18.00
2022-09-04T03:44:00.349Z,18.00
2022-09-04T03:47:00.858Z,18.00
2022-09-04T03:50:02.730Z,18.00
2022-09-04T03:53:02.058Z,18.00
2022-09-04T03:56:01.776Z,18.00
2022-09-04T03:59:10.126Z,17.90
2022-09-04T04:01:47.445Z,17.90
2022-09-04T04:04:35.501Z,17.80
2022-09-04T04:07:41.126Z,17.80
2022-09-04T04:10:49.033Z,17.80
2022-09-04T04:13:56.240Z,17.80
2022-09-04T04:17:05.754Z,17.80
2022-09-04T04:19:56.106Z,17.80
2022-09-04T04:22:57.148Z,17.80
2022-09-04T04:26:10.895Z,17.80
2022-09-04T04:29:06.293Z,17.90
2022-09-04T04:32:10.145Z,17.80
2022-09-04T04:35:19.549Z,17.90
2022-09-04T04:38:07.116Z,17.90
2022-09-04T04:40:58.279Z,17.90
2022-09-04T04:44:49.416Z,18.00
2022-09-04T04:47:39.487Z,17.90
2022-09-04T04:51:11.501Z,17.90
2022-09-04T04:54:07.096Z,17.90
2022-09-04T04:57:16.940Z,17.80
2022-09-04T05:00:27.336Z,17.90
2022-09-04T05:03:33.125Z,17.90
2022-09-04T05:06:14.871Z,18.00
2022-09-04T05:09:17.099Z,18.00
2022-09-04T05:12:20.803Z,18.10
2022-09-04T05:15:12.669Z,18.10
2022-09-04T05:18:00.558Z,18.10
2022-09-04T05:21:01.581Z,18.20
2022-09-04T05:24:02.412Z,18.20
2022-09-04T05:26:50.783Z,18.30
2022-09-04T05:29:32.663Z,18.30
2022-09-04T05:32:34.329Z,18.30
2022-09-04T05:35:35.208Z,18.30
2022-09-04T05:38:16.452Z,18.40
2022-09-04T05:40:58.762Z,18.40
2022-09-04T05:44:04.724Z,18.50
2022-09-04T05:46:52.128Z,18.70
2022-09-04T05:50:01.410Z,18.90
2022-09-04T05:53:16.176Z,19.00
2022-09-04T05:56:25.734Z,19.10
2022-09-04T05:59:36.023Z,19.30
2022-09-04T06:02:39.545Z,19.40
2022-09-04T06:05:50.630Z,19.50
2022-09-04T06:08:37.640Z,19.60
2022-09-04T06:11:31.608Z,19.80
2022-09-04T06:14:18.045Z,19.90
2022-09-04T06:17:12.690Z,20.00
2022-09-04T06:19:52.189Z,20.10
2022-09-04T06:22:39.712Z,20.10
2022-09-04T06:25:51.868Z,20.00
2022-09-04T06:28:40.684Z,20.10
2022-09-04T06:31:27.454Z,20.10
2022-09-04T06:34:34.477Z,20.00
2022-09-04T06:37:48.740Z,20.00
2022-09-04T06:40:36.036Z,20.10
2022-09-04T06:43:29.785Z,20.20
2022-09-04T06:46:21.929Z,20.20
2022-09-04T06:49:10.635Z,20.30
2022-09-04T06:52:11.358Z,20.40
2022-09-04T06:55:05.214Z,20.50
2022-09-04T06:58:12.667Z,20.50
2022-09-04T07:01:13.810Z,20.60
2022-09-04T07:04:12.790Z,20.60
2022-09-04T07:07:21.784Z,20.70
2022-09-04T07:10:15.998Z,20.70
2022-09-04T07:13:16.977Z,20.70
2022-09-04T07:16:00.427Z,20.70
2022-09-04T07:19:28.641Z,20.70
2022-09-04T07:22:18.685Z,20.60
2022-09-04T07:25:09.552Z,20.70
2022-09-04T07:28:21.058Z,20.80
2022-09-04T07:31:41.524Z,20.80
2022-09-04T07:34:50.577Z,20.90
2022-09-04T07:37:59.933Z,21.00
2022-09-04T07:41:20.336Z,21.00
2022-09-04T07:44:27.205Z,21.00
2022-09-04T07:47:14.952Z,21.00
2022-09-04T07:50:17.319Z,20.80
2022-09-04T07:52:53.114Z,20.70
2022-09-04T07:55:55.611Z,20.60
2022-09-04T07:58:43.049Z,20.70
2022-09-04T08:01:20.748Z,20.70
2022-09-04T08:04:32.975Z,20.70
2022-09-04T08:07:13.835Z,20.70
2022-09-04T08:10:06.184Z,20.80
2022-09-04T08:12:59.201Z,20.80
2022-09-04T08:15:46.686Z,20.80
2022-09-04T08:18:41.327Z,20.80
2022-09-04T08:21:36.257Z,20.80
2022-09-04T08:24:40.240Z,20.90
2022-09-04T08:27:29.931Z,21.00
2022-09-04T08:30:08.826Z,21.00
2022-09-04T08:33:39.949Z,21.00
2022-09-04T08:36:34.701Z,21.00
2022-09-04T08:39:20.311Z,21.00
2022-09-04T08:42:31.361Z,21.10
2022-09-04T08:45:42.470Z,21.30
2022-09-04T08:48:48.801Z,21.50
2022-09-04T08:51:47.015Z,21.70
2022-09-04T08:54:56.135Z,21.80
2022-09-04T08:57:42.386Z,21.80
2022-09-04T09:00:45.460Z,21.80
2022-09-04T09:03:49.048Z,21.80
2022-09-04T09:06:49.334Z,21.80
2022-09-04T09:09:38.151Z,21.90
2022-09-04T09:12:40.271Z,22.00
2022-09-04T09:15:31.940Z,22.20
2022-09-04T09:18:45.762Z,22.30
2022-09-04T09:21:55.718Z,22.50
2022-09-04T09:24:41.884Z,22.70
2022-09-04T09:27:26.628Z,22.80
2022-09-04T09:29:53.671Z,23.00
2022-09-04T09:32:45.130Z,23.10
2022-09-04T09:35:44.988Z,23.20
2022-09-04T09:38:38.832Z,23.20
2022-09-04T09:41:52.297Z,23.30
2022-09-04T09:45:03.425Z,23.40
2022-09-04T09:48:01.937Z,23.40
2022-09-04T09:51:07.850Z,23.60
2022-09-04T09:54:08.952Z,23.60
2022-09-04T09:57:01.677Z,23.60
2022-09-04T10:00:10.923Z,23.60
2022-09-04T10:03:17.666Z,23.60
2022-09-04T10:06:23.381Z,23.60
2022-09-04T10:09:25.442Z,23.20
2022-09-04T10:12:17.392Z,23.10
2022-09-04T10:15:29.395Z,23.30
2022-09-04T10:18:23.047Z,23.40
2022-09-04T10:21:03.930Z,23.60
2022-09-04T10:23:58.417Z,23.60
2022-09-04T10:27:05.187Z,23.50
2022-09-04T10:30:20.493Z,23.30
2022-09-04T10:33:23.441Z,23.00
2022-09-04T10:36:12.079Z,23.00
2022-09-04T10:39:36.347Z,23.00
2022-09-04T10:43:13.434Z,23.00
2022-09-04T10:46:09.026Z,23.00
2022-09-04T10:48:57.148Z,23.00
2022-09-04T10:52:17.768Z,23.20
2022-09-04T10:55:16.948Z,23.30
2022-09-04T10:58:13.681Z,23.30
2022-09-04T11:01:11.506Z,23.30
2022-09-04T11:04:16.720Z,23.40
2022-09-04T11:07:08.293Z,23.50
2022-09-04T11:10:27.078Z,23.50
2022-09-04T11:13:25.114Z,23.70
2022-09-04T11:16:29.161Z,23.80
2022-09-04T11:19:23.236Z,23.90
2022-09-04T11:22:07.686Z,23.80
2022-09-04T11:25:28.181Z,23.90
2022-09-04T11:28:47.782Z,24.00
2022-09-04T11:31:38.072Z,24.10
2022-09-04T11:35:06.502Z,24.30
2022-09-04T11:38:12.223Z,24.50
2022-09-04T11:41:13.804Z,24.70
2022-09-04T11:44:32.359Z,24.90
2022-09-04T11:47:28.617Z,25.00
2022-09-04T11:50:16.490Z,25.20
2022-09-04T11:53:02.091Z,25.20
2022-09-04T11:56:10.841Z,25.10
2022-09-04T11:59:13.875Z,25.30
2022-09-04T12:01:56.077Z,25.40
2022-09-04T12:05:12.317Z,25.40
2022-09-04T12:08:17.957Z,25.40
2022-09-04T12:11:25.334Z,25.30
2022-09-04T12:14:32.951Z,25.30
2022-09-04T12:17:38.932Z,25.20
2022-09-04T12:20:47.670Z,25.10
2022-09-04T12:23:54.273Z,25.20
2022-09-04T12:27:03.583Z,25.10
2022-09-04T12:30:03.208Z,25.20
2022-09-04T12:32:53.132Z,25.30
2022-09-04T12:36:02.633Z,25.30
2022-09-04T12:39:02.383Z,25.70
2022-09-04T12:42:00.913Z,26.10
2022-09-04T12:44:46.767Z,26.20
2022-09-04T12:47:39.534Z,26.40
2022-09-04T12:50:32.819Z,26.60
2022-09-04T12:53:26.901Z,27.00
2022-09-04T12:56:11.855Z,27.20
2022-09-04T12:59:15.968Z,27.30
2022-09-04T13:02:20.080Z,27.60
2022-09-04T13:05:06.625Z,29.40
2022-09-04T13:08:00.036Z,31.90
2022-09-04T13:11:16.669Z,31.80
2022-09-04T13:14:18.218Z,30.40
2022-09-04T13:17:12.017Z,29.80
2022-09-04T13:20:23.998Z,29.90
2022-09-04T13:23:26.841Z,31.40
2022-09-04T13:26:18.411Z,32.50
2022-09-04T13:29:39.825Z,31.90
2022-09-04T13:32:39.988Z,31.50
2022-09-04T13:35:39.951Z,31.60
2022-09-04T13:38:31.336Z,30.90
2022-09-04T13:41:30.181Z,30.20
2022-09-04T13:44:01.323Z,29.60
2022-09-04T13:46:53.130Z,29.00
2022-09-04T13:49:39.316Z,29.00
2022-09-04T13:52:20.997Z,29.90
2022-09-04T13:55:01.247Z,33.50
2022-09-04T13:57:42.217Z,34.10
2022-09-04T14:00:16.788Z,36.50
2022-09-04T14:02:48.816Z,38.00
2022-09-04T14:05:27.245Z,38.80
2022-09-04T14:08:15.892Z,39.10
2022-09-04T14:11:23.670Z,38.00
2022-09-04T14:14:59.229Z,37.10
2022-09-04T14:17:48.768Z,36.40
2022-09-04T14:20:42.680Z,36.20
2022-09-04T14:23:31.435Z,36.90
2022-09-04T14:26:34.118Z,37.60
2022-09-04T14:29:33.557Z,38.20
2022-09-04T14:33:10.100Z,38.10
2022-09-04T14:36:06.172Z,37.60
2022-09-04T14:39:02.621Z,36.20
2022-09-04T14:42:10.529Z,35.40
2022-09-04T14:44:58.141Z,34.60
2022-09-04T14:47:57.741Z,33.70
2022-09-04T14:50:30.453Z,33.40
2022-09-04T14:53:01.456Z,34.10
2022-09-04T14:55:41.534Z,34.80
2022-09-04T14:58:20.561Z,35.60
2022-09-04T15:01:22.786Z,36.20
2022-09-04T15:04:12.641Z,36.50
2022-09-04T15:07:11.653Z,35.60
2022-09-04T15:09:55.977Z,35.40
2022-09-04T15:12:38.712Z,35.70
2022-09-04T15:15:19.354Z,35.70
2022-09-04T15:18:08.761Z,36.00
2022-09-04T15:20:48.340Z,36.60
2022-09-04T15:24:07.631Z,35.20
2022-09-04T15:27:17.772Z,33.00
2022-09-04T15:30:08.946Z,31.50
2022-09-04T15:32:45.464Z,30.20
2022-09-04T15:35:33.486Z,29.70
2022-09-04T15:38:30.046Z,29.20
2022-09-04T15:41:39.947Z,28.90
2022-09-04T15:44:34.516Z,28.70
2022-09-04T15:48:10.093Z,28.80
2022-09-04T15:50:50.706Z,29.00
2022-09-04T15:53:33.271Z,28.90
2022-09-04T15:56:37.196Z,28.80
2022-09-04T15:59:34.127Z,28.80
2022-09-04T16:02:37.278Z,28.80
2022-09-04T16:05:24.049Z,28.70
2022-09-04T16:08:23.804Z,28.40
2022-09-04T16:11:57.922Z,28.10
2022-09-04T16:14:53.106Z,27.90
2022-09-04T16:17:28.662Z,27.90
2022-09-04T16:20:35.881Z,27.80
2022-09-04T16:23:19.260Z,27.60
2022-09-04T16:25:58.863Z,27.40
2022-09-04T16:28:35.848Z,27.20
2022-09-04T16:31:44.556Z,27.00
2022-09-04T16:34:34.485Z,26.80
2022-09-04T16:37:40.849Z,26.60
2022-09-04T16:40:38.568Z,26.50
2022-09-04T16:43:39.451Z,26.40
2022-09-04T16:46:30.410Z,26.20
2022-09-04T16:49:26.433Z,26.10
2022-09-04T16:52:23.893Z,26.00
2022-09-04T16:55:06.831Z,25.90
2022-09-04T16:58:12.262Z,25.80
2022-09-04T17:01:18.072Z,25.60
2022-09-04T17:04:22.493Z,25.40
2022-09-04T17:07:05.455Z,25.30
2022-09-04T17:10:21.137Z,25.20
2022-09-04T17:13:12.229Z,25.20
2022-09-04T17:16:20.679Z,25.10
2022-09-04T17:18:56.644Z,25.00
2022-09-04T17:28:09.398Z,24.90
2022-09-04T17:29:09.386Z,24.80
2022-09-04T17:29:16.011Z,24.70
2022-09-04T17:31:16.960Z,24.70
2022-09-04T17:40:35.958Z,24.60
2022-09-04T17:40:55.088Z,24.60
2022-09-04T17:41:36.510Z,24.60
2022-09-04T17:44:06.184Z,24.50
2022-09-04T17:47:10.451Z,24.50
2022-09-04T17:50:04.171Z,24.40
2022-09-04T17:52:55.762Z,24.40
2022-09-04T17:55:29.264Z,24.30
2022-09-04T18:01:30.768Z,24.30
2022-09-04T18:04:22.621Z,24.30
2022-09-04T18:07:35.676Z,24.40
2022-09-04T18:10:46.993Z,24.30
2022-09-04T18:13:36.920Z,24.10
2022-09-04T18:16:29.207Z,24.10
2022-09-04T18:19:17.241Z,24.00
2022-09-04T18:22:22.153Z,24.00
2022-09-04T18:25:22.370Z,24.00
2022-09-04T18:28:16.450Z,24.00
2022-09-04T18:37:23.208Z,24.10
2022-09-04T18:37:51.253Z,24.00
2022-09-04T18:42:59.324Z,24.00
2022-09-04T18:50:20.428Z,24.00
2022-09-04T18:50:38.083Z,23.90
2022-09-04T18:52:46.719Z,23.80
2022-09-04T18:55:30.474Z,23.80
2022-09-04T18:58:27.075Z,23.70
2022-09-04T19:01:27.435Z,23.70
2022-09-04T19:04:23.147Z,23.70
2022-09-04T19:07:23.556Z,23.70
2022-09-04T19:10:22.632Z,23.60
2022-09-04T19:13:02.670Z,23.50
2022-09-04T19:15:55.932Z,23.50
2022-09-04T19:18:52.042Z,23.50
2022-09-04T19:21:57.674Z,23.50
2022-09-04T19:25:06.730Z,23.30
2022-09-04T19:28:18.791Z,23.30
2022-09-04T19:31:14.311Z,23.30
2022-09-04T19:34:10.052Z,23.20
2022-09-04T19:37:20.409Z,23.10
2022-09-04T19:45:56.852Z,23.10
2022-09-04T19:45:59.684Z,23.10
2022-09-04T19:46:30.407Z,23.00
2022-09-04T19:51:33.807Z,22.90
2022-09-04T19:53:30.955Z,22.90
2022-09-04T19:55:59.192Z,22.80
2022-09-04T19:58:39.763Z,22.70
2022-09-04T20:01:25.124Z,22.50
2022-09-04T20:04:37.306Z,22.50
2022-09-04T20:07:41.587Z,22.40
2022-09-04T20:10:42.840Z,22.50
2022-09-04T20:13:40.268Z,22.50
2022-09-04T20:16:24.577Z,22.40
2022-09-04T20:19:26.563Z,22.40
2022-09-04T20:22:29.385Z,22.40
2022-09-04T20:25:27.882Z,22.40
2022-09-04T20:28:17.317Z,22.40
2022-09-04T20:31:04.558Z,22.30
2022-09-04T20:34:09.688Z,22.20
2022-09-04T20:36:49.469Z,22.20
2022-09-04T20:39:43.963Z,22.10
2022-09-04T20:42:56.450Z,22.10
2022-09-04T20:47:17.571Z,21.90
2022-09-04T20:52:45.459Z,21.80
2022-09-04T20:52:54.576Z,21.70
2022-09-04T20:55:03.503Z,21.70
2022-09-04T21:00:36.557Z,21.70
2022-09-04T21:03:23.111Z,21.70
2022-09-04T21:04:42.122Z,21.80
2022-09-04T21:07:47.720Z,21.70
2022-09-04T21:10:32.057Z,21.60
2022-09-04T21:13:26.242Z,21.60
2022-09-04T21:16:28.060Z,21.60
2022-09-04T21:19:29.193Z,21.60
2022-09-04T21:22:32.654Z,21.60
2022-09-04T21:25:20.213Z,21.50
2022-09-04T21:28:26.531Z,21.60
2022-09-04T21:31:31.895Z,21.60
2022-09-04T21:34:43.255Z,21.60
2022-09-04T21:37:43.832Z,21.60
2022-09-04T21:40:51.696Z,21.60
2022-09-04T21:43:44.139Z,21.60
2022-09-04T21:46:28.961Z,21.60
2022-09-04T21:49:26.747Z,21.60
2022-09-04T21:52:08.128Z,21.60
2022-09-04T21:58:21.193Z,21.50
2022-09-04T22:02:39.549Z,21.50
2022-09-04T22:02:45.250Z,21.50
2022-09-04T22:05:04.228Z,21.40
2022-09-04T22:13:24.659Z,21.40
2022-09-04T22:13:31.596Z,21.30
2022-09-04T22:14:58.181Z,21.30
2022-09-04T22:17:59.056Z,21.30
2022-09-04T22:20:52.952Z,21.20
2022-09-04T22:23:47.576Z,21.20
2022-09-04T22:27:10.115Z,21.20
2022-09-04T22:29:50.695Z,21.20
2022-09-04T22:33:19.751Z,21.20
2022-09-04T22:36:38.302Z,21.20
2022-09-04T22:39:37.429Z,21.20
2022-09-04T22:42:34.464Z,21.20
2022-09-04T22:45:34.286Z,21.20
2022-09-04T22:48:31.837Z,21.10
2022-09-04T22:51:27.572Z,21.00
2022-09-04T22:54:19.602Z,21.00
2022-09-04T22:57:24.112Z,21.00
2022-09-04T23:00:16.242Z,20.90
2022-09-04T23:03:22.814Z,20.90
2022-09-04T23:07:57.483Z,20.90
2022-09-04T23:13:47.123Z,20.80
2022-09-04T23:13:57.802Z,20.90
2022-09-04T23:16:28.542Z,20.90
2022-09-04T23:24:29.875Z,20.80
2022-09-04T23:26:58.514Z,20.80
2022-09-04T23:27:08.221Z,20.70
2022-09-04T23:30:11.853Z,20.70
2022-09-04T23:32:51.900Z,20.60
2022-09-04T23:36:00.809Z,20.60
2022-09-04T23:38:47.003Z,20.60
2022-09-04T23:41:53.673Z,20.60
2022-09-04T23:44:53.043Z,20.60
2022-09-04T23:47:48.541Z,20.60
2022-09-04T23:50:36.947Z,20.60
2022-09-04T23:53:45.019Z,20.50
2022-09-04T23:56:35.062Z,20.50
2022-09-04T23:59:40.006Z,20.50
